createdAt,value
2023-03-09T00:01:42.924Z,92.66
2023-03-09T00:04:15.741Z,92.96
2023-03-09T00:06:45.668Z,92.78
2023-03-09T00:09:15.587Z,92.67
2023-03-09T00:11:44.905Z,92.89
2023-03-09T00:14:14.173Z,92.72
2023-03-09T00:16:43.374Z,92.76
2023-03-09T00:19:13.436Z,92.90
2023-03-09T00:21:42.792Z,92.80
2023-03-09T00:24:15.734Z,93.05
2023-03-09T00:26:46.106Z,93.10
2023-03-09T00:29:14.930Z,92.77
2023-03-09T00:31:43.921Z,92.98
2023-03-09T00:34:15.616Z,93.21
2023-03-09T00:36:43.715Z,91.85
2023-03-09T00:39:12.915Z,92.69
2023-03-09T00:41:41.846Z,93.35
2023-03-09T00:44:10.833Z,94.51
2023-03-09T00:46:40.024Z,93.76
2023-03-09T00:49:09.646Z,94.39
2023-03-09T00:51:39.495Z,94.21
2023-03-09T00:54:08.665Z,95.04
2023-03-09T00:56:37.393Z,94.55
2023-03-09T00:59:06.030Z,94.20
2023-03-09T01:01:35.582Z,94.84
2023-03-09T01:04:04.472Z,94.50
2023-03-09T01:06:33.095Z,95.33
2023-03-09T01:09:03.322Z,95.62
2023-03-09T01:11:31.646Z,94.76
2023-03-09T01:13:59.739Z,94.42
2023-03-09T01:16:28.696Z,94.15
2023-03-09T01:18:57.112Z,94.28
2023-03-09T01:21:25.101Z,95.11
2023-03-09T01:23:54.070Z,94.81
2023-03-09T01:26:23.642Z,94.47
2023-03-09T01:28:52.239Z,94.17
2023-03-09T01:31:20.969Z,94.00
2023-03-09T01:33:50.762Z,94.26
2023-03-09T01:36:21.484Z,94.22
2023-03-09T01:38:50.272Z,94.66
2023-03-09T01:41:20.412Z,94.51
2023-03-09T01:43:52.298Z,93.60
2023-03-09T01:46:38.564Z,93.26
2023-03-09T01:49:20.374Z,93.81
2023-03-09T01:51:53.632Z,94.45
2023-03-09T01:54:26.435Z,94.08
2023-03-09T01:56:57.496Z,94.57
2023-03-09T01:59:30.868Z,95.48
2023-03-09T02:02:00.068Z,95.30
2023-03-09T02:04:34.422Z,95.41
2023-03-09T02:07:03.385Z,98.52
2023-03-09T02:09:40.282Z,97.11
2023-03-09T02:12:11.591Z,96.68
2023-03-09T02:14:41.939Z,96.84
2023-03-09T02:17:12.802Z,96.88
2023-03-09T02:19:56.330Z,97.18
2023-03-09T02:22:24.589Z,97.41
2023-03-09T02:25:04.240Z,98.23
2023-03-09T02:27:35.704Z,97.84
2023-03-09T02:30:04.902Z,97.37
2023-03-09T02:32:33.981Z,99.38
2023-03-09T02:35:02.173Z,97.24
2023-03-09T02:37:34.859Z,97.00
2023-03-09T02:40:12.992Z,96.52
2023-03-09T02:42:44.593Z,96.06
2023-03-09T02:45:15.557Z,96.00
2023-03-09T02:47:43.561Z,95.85
2023-03-09T02:50:13.109Z,95.22
2023-03-09T02:52:41.596Z,94.86
2023-03-09T02:55:10.419Z,95.08
2023-03-09T02:57:39.110Z,95.15
2023-03-09T03:00:10.688Z,95.13
2023-03-09T03:02:39.451Z,95.12
2023-03-09T03:05:09.700Z,94.70
2023-03-09T03:07:37.932Z,95.21
2023-03-09T03:10:07.229Z,95.26
2023-03-09T03:12:35.430Z,95.68
2023-03-09T03:15:03.921Z,95.05
2023-03-09T03:17:33.980Z,95.34
2023-03-09T03:20:02.186Z,95.98
2023-03-09T03:22:30.277Z,100.00
2023-03-09T03:24:58.950Z,100.00
2023-03-09T03:27:27.114Z,98.04
2023-03-09T03:29:55.291Z,96.60
2023-03-09T03:32:23.915Z,94.90
2023-03-09T03:34:53.391Z,95.37
2023-03-09T03:37:21.714Z,95.09
2023-03-09T03:39:50.445Z,95.57
2023-03-09T03:42:18.537Z,94.98
2023-03-09T03:44:46.606Z,94.14
2023-03-09T03:47:15.215Z,94.11
2023-03-09T03:49:43.418Z,94.30
2023-03-09T03:52:15.572Z,93.93
2023-03-09T03:54:44.090Z,94.12
2023-03-09T03:57:12.072Z,92.93
2023-03-09T03:59:40.048Z,93.37
2023-03-09T04:02:08.837Z,93.44
2023-03-09T04:04:37.384Z,93.98
2023-03-09T04:07:05.668Z,93.09
2023-03-09T04:09:35.739Z,92.95
2023-03-09T04:12:05.742Z,93.46
2023-03-09T04:14:35.587Z,94.01
2023-03-09T04:17:03.807Z,92.96
2023-03-09T04:19:32.020Z,92.71
2023-03-09T04:22:00.547Z,93.44
2023-03-09T04:24:28.650Z,93.01
2023-03-09T04:26:58.078Z,92.93
2023-03-09T04:29:26.592Z,92.65
2023-03-09T04:31:54.564Z,93.14
2023-03-09T04:34:22.790Z,93.51
2023-03-09T04:36:51.476Z,93.68
2023-03-09T04:39:19.607Z,92.98
2023-03-09T04:41:47.753Z,92.73
2023-03-09T04:44:17.656Z,92.55
2023-03-09T04:46:45.896Z,92.53
2023-03-09T04:49:14.581Z,92.29
2023-03-09T04:51:43.222Z,92.99
2023-03-09T04:54:11.748Z,92.41
2023-03-09T04:56:40.066Z,93.92
2023-03-09T04:59:15.080Z,94.16
2023-03-09T05:01:44.657Z,93.33
2023-03-09T05:04:12.897Z,92.92
2023-03-09T05:06:41.506Z,94.08
2023-03-09T05:09:10.092Z,94.40
2023-03-09T05:11:38.165Z,93.52
2023-03-09T05:14:06.817Z,94.21
2023-03-09T05:16:35.141Z,94.76
2023-03-09T05:19:04.749Z,94.13
2023-03-09T05:21:34.253Z,93.06
2023-03-09T05:24:02.489Z,93.09
2023-03-09T05:26:31.023Z,93.37
2023-03-09T05:28:59.766Z,93.21
2023-03-09T05:31:28.026Z,92.76
2023-03-09T05:33:56.394Z,94.05
2023-03-09T05:36:28.412Z,94.13
2023-03-09T05:38:56.522Z,94.39
2023-03-09T05:41:24.762Z,93.57
2023-03-09T05:43:53.858Z,93.64
2023-03-09T05:46:24.649Z,93.54
2023-03-09T05:48:53.531Z,92.92
2023-03-09T05:51:21.674Z,94.00
2023-03-09T05:53:51.099Z,94.05
2023-03-09T05:56:19.773Z,94.49
2023-03-09T05:58:51.858Z,93.62
2023-03-09T06:01:22.756Z,93.48
2023-03-09T06:03:54.262Z,93.73
2023-03-09T06:06:22.929Z,93.64
2023-03-09T06:08:52.447Z,93.23
2023-03-09T06:11:20.942Z,93.51
2023-03-09T06:13:49.917Z,93.78
2023-03-09T06:16:19.062Z,93.10
2023-03-09T06:18:47.745Z,92.84
2023-03-09T06:21:16.818Z,93.18
2023-03-09T06:23:45.065Z,93.13
2023-03-09T06:26:16.485Z,93.46
2023-03-09T06:28:50.986Z,93.78
2023-03-09T06:31:20.919Z,92.87
2023-03-09T06:33:50.639Z,92.75
2023-03-09T06:36:20.833Z,92.20
2023-03-09T06:38:49.596Z,92.68
2023-03-09T06:41:28.836Z,92.24
2023-03-09T06:43:57.278Z,93.07
2023-03-09T06:46:25.728Z,92.43
2023-03-09T06:48:58.284Z,92.12
2023-03-09T06:51:26.474Z,92.52
2023-03-09T06:53:55.118Z,91.94
2023-03-09T06:56:25.178Z,92.09
2023-03-09T06:58:55.603Z,92.12
2023-03-09T07:01:24.433Z,91.81
2023-03-09T07:03:53.469Z,91.50
2023-03-09T07:06:21.981Z,90.98
2023-03-09T07:08:50.942Z,90.42
2023-03-09T07:11:19.369Z,90.56
2023-03-09T07:13:51.172Z,88.29
2023-03-09T07:16:20.059Z,89.21
2023-03-09T07:18:48.325Z,88.39
2023-03-09T07:21:17.952Z,88.60
2023-03-09T07:23:46.845Z,88.70
2023-03-09T07:26:15.472Z,89.34
2023-03-09T07:28:44.320Z,90.24
2023-03-09T07:31:15.628Z,89.07
2023-03-09T07:33:44.037Z,90.82
2023-03-09T07:36:13.140Z,90.44
2023-03-09T07:38:41.839Z,89.95
2023-03-09T07:41:10.437Z,89.66
2023-03-09T07:43:45.479Z,89.87
2023-03-09T07:46:16.596Z,90.04
2023-03-09T07:48:47.967Z,89.95
2023-03-09T07:51:16.479Z,90.92
2023-03-09T07:53:45.055Z,90.90
2023-03-09T07:56:14.950Z,88.89
2023-03-09T07:58:44.591Z,89.13
2023-03-09T08:01:25.064Z,91.45
2023-03-09T08:03:53.734Z,92.27
2023-03-09T08:06:23.130Z,90.24
2023-03-09T08:08:52.009Z,92.73
2023-03-09T08:11:21.128Z,91.93
2023-03-09T08:13:51.960Z,90.93
2023-03-09T08:16:22.716Z,91.26
2023-03-09T08:18:56.945Z,91.31
2023-03-09T08:21:27.306Z,91.55
2023-03-09T08:23:57.266Z,92.15
2023-03-09T08:26:26.651Z,90.34
2023-03-09T08:28:57.125Z,92.08
2023-03-09T08:31:29.555Z,92.71
2023-03-09T08:33:58.587Z,92.91
2023-03-09T08:36:27.700Z,92.19
2023-03-09T08:38:55.942Z,92.18
2023-03-09T08:41:25.682Z,92.99
2023-03-09T08:43:57.236Z,91.60
2023-03-09T08:46:27.558Z,91.20
2023-03-09T08:48:57.542Z,90.86
2023-03-09T08:51:26.702Z,90.98
2023-03-09T08:53:55.354Z,90.60
2023-03-09T08:56:24.256Z,89.37
2023-03-09T08:58:53.445Z,86.49
2023-03-09T09:01:21.945Z,87.36
2023-03-09T09:03:52.361Z,89.04
2023-03-09T09:06:21.648Z,89.52
2023-03-09T09:08:50.748Z,89.25
2023-03-09T09:11:19.949Z,88.28
2023-03-09T09:13:48.348Z,88.62
2023-03-09T09:16:18.103Z,87.05
2023-03-09T09:18:46.980Z,86.53
2023-03-09T09:21:19.535Z,88.03
2023-03-09T09:23:50.165Z,89.41
2023-03-09T09:26:22.893Z,89.52
2023-03-09T09:28:52.654Z,90.30
2023-03-09T09:31:22.411Z,89.83
2023-03-09T09:33:51.193Z,90.55
2023-03-09T09:36:22.124Z,91.36
2023-03-09T09:38:50.513Z,90.49
2023-03-09T09:41:22.385Z,89.82
2023-03-09T09:43:53.358Z,90.92
2023-03-09T09:46:24.678Z,91.80
2023-03-09T09:48:53.392Z,91.93
2023-03-09T09:54:31.468Z,91.24
2023-03-09T09:57:03.997Z,92.15
2023-03-09T09:59:40.275Z,90.24
2023-03-09T10:02:24.993Z,91.66
2023-03-09T10:05:05.004Z,92.28
2023-03-09T10:07:38.848Z,92.13
2023-03-09T10:10:19.232Z,91.42
2023-03-09T10:12:48.638Z,90.64
2023-03-09T10:15:26.584Z,92.53
2023-03-09T10:17:59.865Z,90.19
2023-03-09T10:20:36.232Z,91.63
2023-03-09T10:23:20.082Z,91.17
2023-03-09T10:25:54.676Z,91.19
2023-03-09T10:28:27.685Z,91.28
2023-03-09T10:31:03.799Z,90.25
2023-03-09T10:33:42.278Z,89.14
2023-03-09T10:36:17.358Z,89.24
2023-03-09T10:38:46.117Z,89.75
2023-03-09T10:41:20.638Z,89.49
2023-03-09T10:43:49.904Z,89.39
2023-03-09T10:46:21.653Z,88.98
2023-03-09T10:48:53.248Z,87.99
2023-03-09T10:51:28.157Z,88.61
2023-03-09T10:53:59.313Z,87.68
2023-03-09T10:56:32.392Z,87.67
2023-03-09T10:59:16.392Z,87.93
2023-03-09T11:01:47.073Z,89.41
2023-03-09T11:04:31.709Z,88.38
2023-03-09T11:07:01.292Z,89.21
2023-03-09T11:09:33.502Z,88.77
2023-03-09T11:12:37.222Z,88.67
2023-03-09T11:15:25.863Z,86.41
2023-03-09T11:17:56.078Z,85.22
2023-03-09T11:20:34.206Z,84.20
2023-03-09T11:23:14.778Z,86.29
2023-03-09T11:25:55.382Z,85.73
2023-03-09T11:28:34.205Z,83.98
2023-03-09T11:31:03.161Z,84.86
2023-03-09T11:33:33.266Z,85.13
2023-03-09T11:36:02.924Z,85.28
2023-03-09T11:38:33.131Z,86.80
2023-03-09T11:41:10.340Z,87.01
2023-03-09T11:43:44.487Z,87.16
2023-03-09T11:46:20.181Z,84.83
2023-03-09T11:48:53.262Z,87.89
2023-03-09T11:51:27.602Z,87.24
2023-03-09T11:54:04.716Z,87.59
2023-03-09T11:56:36.918Z,85.72
2023-03-09T11:59:13.820Z,87.44
2023-03-09T12:01:48.299Z,86.98
2023-03-09T12:04:18.965Z,86.24
2023-03-09T12:06:59.942Z,88.94
2023-03-09T12:09:35.060Z,87.96
2023-03-09T12:12:15.182Z,86.30
2023-03-09T12:14:51.047Z,85.70
2023-03-09T12:17:23.817Z,85.75
2023-03-09T12:20:11.568Z,86.38
2023-03-09T12:22:43.927Z,87.31
2023-03-09T12:25:24.134Z,86.57
2023-03-09T12:27:56.572Z,88.81
2023-03-09T12:30:31.622Z,87.44
2023-03-09T12:33:02.400Z,87.38
2023-03-09T12:36:06.369Z,85.69
2023-03-09T12:38:35.402Z,84.84
2023-03-09T12:41:03.888Z,82.08
2023-03-09T12:43:53.942Z,85.02
2023-03-09T12:46:52.607Z,80.65
2023-03-09T12:49:25.733Z,83.46
2023-03-09T12:52:35.574Z,82.79
2023-03-09T12:55:14.265Z,82.51
2023-03-09T12:57:42.885Z,82.64
2023-03-09T13:00:32.843Z,82.63
2023-03-09T13:03:09.021Z,80.89
2023-03-09T13:05:47.361Z,78.28
2023-03-09T13:08:27.189Z,78.19
2023-03-09T13:11:24.662Z,77.21
2023-03-09T13:13:53.547Z,77.53
2023-03-09T13:16:53.736Z,78.54
2023-03-09T13:19:57.411Z,78.19
2023-03-09T13:22:43.320Z,78.90
2023-03-09T13:25:25.583Z,81.11
2023-03-09T13:28:04.786Z,79.61
2023-03-09T13:30:37.213Z,79.36
2023-03-09T13:33:12.602Z,77.90
2023-03-09T13:35:57.270Z,76.75
2023-03-09T13:38:31.269Z,77.75
2023-03-09T13:41:01.626Z,81.55
2023-03-09T13:43:32.875Z,82.51
2023-03-09T13:46:08.833Z,83.91
2023-03-09T13:48:45.405Z,84.11
2023-03-09T13:51:37.728Z,86.35
2023-03-09T13:54:07.937Z,88.07
2023-03-09T13:56:36.164Z,88.34
2023-03-09T13:59:05.632Z,89.03
2023-03-09T14:01:34.625Z,87.17
2023-03-09T14:04:03.307Z,86.29
2023-03-09T14:09:34.062Z,87.08
2023-03-09T14:12:03.983Z,87.00
2023-03-09T14:14:34.031Z,86.19
2023-03-09T14:17:02.469Z,86.78
2023-03-09T14:19:33.129Z,85.83
2023-03-09T14:22:03.539Z,84.81
2023-03-09T14:24:34.882Z,86.26
2023-03-09T14:27:22.537Z,86.45
2023-03-09T14:29:52.311Z,86.18
2023-03-09T14:32:25.067Z,85.15
2023-03-09T14:34:55.252Z,83.92
2023-03-09T14:37:27.857Z,84.38
2023-03-09T14:40:00.466Z,84.53
2023-03-09T14:42:31.663Z,82.73
2023-03-09T14:45:25.673Z,82.48
2023-03-09T14:47:58.752Z,85.04
2023-03-09T14:50:28.732Z,82.44
2023-03-09T14:52:58.376Z,80.57
2023-03-09T14:55:27.001Z,81.46
2023-03-09T14:57:56.376Z,79.93
2023-03-09T15:00:26.482Z,78.88
2023-03-09T15:02:55.731Z,80.12
2023-03-09T15:05:27.372Z,78.98
2023-03-09T15:07:55.772Z,79.89
2023-03-09T15:10:26.838Z,77.36
2023-03-09T15:12:56.618Z,80.45
2023-03-09T15:15:27.429Z,77.67
2023-03-09T15:17:58.167Z,78.85
2023-03-09T15:20:43.753Z,78.49
2023-03-09T15:23:14.103Z,77.90
2023-03-09T15:25:44.759Z,78.51
2023-03-09T15:28:13.787Z,77.97
2023-03-09T15:30:42.684Z,77.13
2023-03-09T15:33:12.204Z,77.44
2023-03-09T15:35:44.100Z,77.19
2023-03-09T15:38:12.342Z,76.59
2023-03-09T15:40:44.556Z,77.13
2023-03-09T15:43:12.788Z,77.88
2023-03-09T15:45:45.401Z,77.42
2023-03-09T15:48:14.322Z,77.12
2023-03-09T15:50:42.704Z,78.99
2023-03-09T15:53:11.580Z,80.46
2023-03-09T15:55:39.665Z,80.75
2023-03-09T15:58:09.337Z,83.98
2023-03-09T16:00:38.481Z,84.36
2023-03-09T16:03:07.497Z,85.44
2023-03-09T16:05:35.882Z,87.17
2023-03-09T16:08:04.773Z,88.10
2023-03-09T16:10:33.151Z,87.99
2023-03-09T16:13:01.509Z,88.22
2023-03-09T16:15:31.646Z,88.02
2023-03-09T16:17:59.849Z,88.43
2023-03-09T16:20:28.609Z,87.62
2023-03-09T16:22:57.399Z,87.60
2023-03-09T16:25:26.600Z,86.84
2023-03-09T16:27:54.954Z,86.92
2023-03-09T16:30:24.173Z,86.59
2023-03-09T16:32:55.600Z,86.56
2023-03-09T16:35:27.030Z,85.80
2023-03-09T16:37:56.667Z,85.38
2023-03-09T16:40:25.056Z,86.00
2023-03-09T16:42:53.901Z,85.53
2023-03-09T16:45:23.022Z,85.72
2023-03-09T16:47:55.650Z,85.33
2023-03-09T16:50:26.646Z,85.27
2023-03-09T16:52:55.223Z,84.69
2023-03-09T16:55:25.166Z,85.38
2023-03-09T16:57:53.708Z,85.06
2023-03-09T17:00:23.908Z,84.80
2023-03-09T17:02:53.050Z,84.42
2023-03-09T17:05:21.506Z,83.20
2023-03-09T17:07:51.518Z,84.48
2023-03-09T17:10:22.652Z,84.14
2023-03-09T17:12:50.870Z,84.62
2023-03-09T17:15:19.335Z,84.21
2023-03-09T17:17:48.438Z,85.09
2023-03-09T17:20:16.697Z,84.37
2023-03-09T17:22:45.504Z,84.50
2023-03-09T17:25:20.815Z,85.06
2023-03-09T17:27:51.756Z,84.86
2023-03-09T17:30:24.853Z,84.64
2023-03-09T17:32:56.618Z,84.55
2023-03-09T17:35:25.825Z,84.43
2023-03-09T17:37:54.685Z,85.05
2023-03-09T17:40:24.539Z,84.31
2023-03-09T17:42:53.490Z,83.92
2023-03-09T17:45:22.061Z,83.80
2023-03-09T17:47:50.623Z,83.50
2023-03-09T17:50:19.236Z,83.80
2023-03-09T17:52:47.618Z,83.79
2023-03-09T17:55:16.054Z,83.20
2023-03-09T17:57:46.149Z,83.94
2023-03-09T18:00:16.327Z,83.76
2023-03-09T18:02:44.570Z,83.13
2023-03-09T18:05:13.771Z,83.76
2023-03-09T18:07:41.984Z,83.55
2023-03-09T18:10:14.576Z,83.30
2023-03-09T18:12:42.796Z,83.44
2023-03-09T18:15:12.965Z,83.29
2023-03-09T18:17:41.477Z,83.72
2023-03-09T18:20:11.363Z,83.51
2023-03-09T18:22:40.298Z,83.28
2023-03-09T18:25:09.261Z,83.76
2023-03-09T18:27:38.241Z,82.70
2023-03-09T18:30:08.769Z,83.27
2023-03-09T18:32:39.391Z,83.58
2023-03-09T18:35:08.554Z,83.05
2023-03-09T18:37:38.654Z,83.49
2023-03-09T18:40:10.090Z,82.89
2023-03-09T18:42:38.304Z,82.78
2023-03-09T18:45:07.366Z,83.44
2023-03-09T18:47:35.968Z,82.95
2023-03-09T18:50:07.147Z,83.52
2023-03-09T18:52:35.951Z,82.59
2023-03-09T18:55:05.009Z,82.25
2023-03-09T18:57:34.174Z,83.17
2023-03-09T19:00:02.942Z,83.01
2023-03-09T19:02:31.442Z,83.15
2023-03-09T19:05:00.363Z,83.03
2023-03-09T19:07:30.865Z,82.93
2023-03-09T19:09:59.140Z,83.38
2023-03-09T19:12:27.655Z,83.70
2023-03-09T19:14:56.874Z,82.50
2023-03-09T19:17:26.660Z,83.35
2023-03-09T19:19:55.293Z,83.54
2023-03-09T19:22:24.616Z,83.20
2023-03-09T19:24:54.370Z,83.06
2023-03-09T19:27:22.789Z,83.61
2023-03-09T19:29:51.602Z,84.09
2023-03-09T19:32:20.082Z,84.45
2023-03-09T19:34:48.415Z,84.04
2023-03-09T19:37:17.172Z,83.79
2023-03-09T19:39:45.984Z,84.22
2023-03-09T19:42:15.585Z,83.96
2023-03-09T19:44:45.819Z,84.61
2023-03-09T19:47:14.033Z,84.39
2023-03-09T19:49:42.430Z,84.71
2023-03-09T19:52:11.254Z,84.90
2023-03-09T19:54:39.366Z,84.78
2023-03-09T19:57:07.927Z,84.64
2023-03-09T19:59:38.343Z,84.85
2023-03-09T20:02:07.991Z,84.25
2023-03-09T20:04:36.375Z,84.07
2023-03-09T20:07:05.329Z,84.03
2023-03-09T20:09:34.622Z,83.82
2023-03-09T20:12:03.839Z,83.72
2023-03-09T20:14:32.362Z,84.38
2023-03-09T20:17:04.524Z,84.50
2023-03-09T20:19:33.328Z,84.44
2023-03-09T20:22:03.320Z,84.76
2023-03-09T20:24:32.325Z,84.42
2023-03-09T20:27:00.849Z,84.38
2023-03-09T20:29:32.009Z,84.66
2023-03-09T20:32:03.261Z,84.88
2023-03-09T20:34:31.431Z,84.90
2023-03-09T20:36:59.903Z,85.10
2023-03-09T20:39:28.895Z,85.34
2023-03-09T20:41:57.960Z,85.32
2023-03-09T20:44:26.137Z,85.33
2023-03-09T20:46:55.021Z,85.50
2023-03-09T20:49:25.331Z,85.60
2023-03-09T20:51:53.734Z,85.54
2023-03-09T20:54:25.637Z,86.08
2023-03-09T20:56:53.846Z,86.20
2023-03-09T20:59:23.101Z,85.81
2023-03-09T21:01:52.486Z,86.09
2023-03-09T21:04:20.807Z,86.01
2023-03-09T21:06:51.192Z,86.57
2023-03-09T21:09:22.178Z,86.46
2023-03-09T21:11:51.549Z,86.69
2023-03-09T21:14:22.098Z,86.82
2023-03-09T21:16:50.436Z,86.97
2023-03-09T21:19:19.179Z,87.31
2023-03-09T21:21:47.708Z,87.29
2023-03-09T21:24:18.054Z,87.62
2023-03-09T21:26:47.413Z,87.41
2023-03-09T21:29:16.479Z,87.28
2023-03-09T21:31:45.158Z,87.08
2023-03-09T21:34:13.809Z,87.81
2023-03-09T21:36:42.210Z,87.78
2023-03-09T21:39:11.257Z,87.49
2023-03-09T21:41:40.782Z,87.41
2023-03-09T21:44:09.836Z,87.22
2023-03-09T21:46:38.657Z,86.84
2023-03-09T21:49:06.943Z,86.08
2023-03-09T21:51:36.039Z,86.24
2023-03-09T21:54:04.923Z,85.21
2023-03-09T21:56:33.652Z,84.87
2023-03-09T21:59:05.285Z,84.81
2023-03-09T22:01:33.786Z,84.95
2023-03-09T22:04:02.101Z,83.75
2023-03-09T22:06:33.388Z,83.88
2023-03-09T22:09:03.353Z,83.34
2023-03-09T22:11:34.011Z,82.20
2023-03-09T22:14:05.779Z,81.42
2023-03-09T22:16:36.780Z,81.10
2023-03-09T22:19:07.119Z,81.27
2023-03-09T22:21:36.300Z,81.32
2023-03-09T22:24:06.795Z,81.75
2023-03-09T22:26:35.838Z,82.31
2023-03-09T22:29:05.854Z,82.61
2023-03-09T22:31:35.669Z,82.37
2023-03-09T22:34:06.012Z,82.76
2023-03-09T22:36:36.341Z,82.12
2023-03-09T22:39:06.288Z,82.53
2023-03-09T22:41:34.930Z,82.97
2023-03-09T22:44:04.145Z,82.31
2023-03-09T22:46:37.607Z,82.22
2023-03-09T22:49:07.042Z,82.66
2023-03-09T22:51:35.727Z,82.55
2023-03-09T22:54:04.093Z,82.95
2023-03-09T22:56:32.969Z,83.16
2023-03-09T22:59:01.375Z,82.46
2023-03-09T23:01:32.028Z,82.29
2023-03-09T23:04:03.080Z,82.66
2023-03-09T23:06:31.685Z,82.52
2023-03-09T23:09:01.461Z,81.57
2023-03-09T23:11:32.452Z,81.95
2023-03-09T23:14:01.279Z,82.25
2023-03-09T23:16:29.579Z,82.14
2023-03-09T23:18:58.529Z,82.35
2023-03-09T23:21:28.133Z,82.20
2023-03-09T23:23:56.523Z,82.42
2023-03-09T23:26:25.736Z,81.90
2023-03-09T23:28:54.383Z,81.70
2023-03-09T23:31:23.577Z,81.47
2023-03-09T23:33:52.812Z,81.07
2023-03-09T23:36:25.793Z,80.69
2023-03-09T23:38:56.320Z,81.17
2023-03-09T23:41:24.653Z,81.04
2023-03-09T23:43:52.874Z,81.53
2023-03-09T23:46:21.981Z,81.79
2023-03-09T23:48:51.817Z,82.35
2023-03-09T23:51:22.777Z,82.26
2023-03-09T23:53:51.567Z,82.59
2023-03-09T23:56:23.271Z,82.69
2023-03-09T23:58:53.310Z,83.31
